createdAt,value
2023-01-23T00:01:36.658Z,7.75
2023-01-23T00:04:05.142Z,6.63
2023-01-23T00:06:33.376Z,6.43
2023-01-23T00:09:01.549Z,6.47
2023-01-23T00:11:30.591Z,6.35
2023-01-23T00:14:00.045Z,6.88
2023-01-23T00:16:31.631Z,5.95
2023-01-23T00:18:59.902Z,5.25
2023-01-23T00:21:29.244Z,7.38
2023-01-23T00:23:58.904Z,6.20
2023-01-23T00:26:29.848Z,6.90
2023-01-23T00:28:57.779Z,4.88
2023-01-23T00:31:30.522Z,6.25
2023-01-23T00:34:04.213Z,6.15
2023-01-23T00:36:38.269Z,6.50
2023-01-23T00:39:15.877Z,6.88
2023-01-23T00:41:46.734Z,5.97
2023-01-23T00:44:15.503Z,5.90
2023-01-23T00:46:43.533Z,6.03
2023-01-23T00:49:11.452Z,6.55
2023-01-23T00:51:39.357Z,5.85
2023-01-23T00:54:07.191Z,5.60
2023-01-23T00:56:35.114Z,5.82
2023-01-23T00:59:03.052Z,5.35
2023-01-23T01:01:32.647Z,5.68
2023-01-23T01:04:01.139Z,6.32
2023-01-23T01:06:30.275Z,5.88
2023-01-23T01:09:00.675Z,5.63
2023-01-23T01:11:28.947Z,5.28
2023-01-23T01:14:01.206Z,4.45
2023-01-23T01:16:29.176Z,5.22
2023-01-23T01:18:59.492Z,6.07
2023-01-23T01:21:27.577Z,5.03
2023-01-23T01:23:55.592Z,5.47
2023-01-23T01:26:23.454Z,5.43
2023-01-23T01:28:51.733Z,5.90
2023-01-23T01:31:19.951Z,5.85
2023-01-23T01:33:49.122Z,5.38
2023-01-23T01:36:21.124Z,5.53
2023-01-23T01:38:49.124Z,6.73
2023-01-23T01:41:18.119Z,6.28
2023-01-23T01:43:46.567Z,5.75
2023-01-23T01:46:17.578Z,5.97
2023-01-23T01:48:58.768Z,6.53
2023-01-23T01:51:32.609Z,7.10
2023-01-23T01:54:10.161Z,6.38
2023-01-23T01:56:55.025Z,6.25
2023-01-23T01:59:25.533Z,5.28
2023-01-23T02:02:05.157Z,6.33
2023-01-23T02:04:39.732Z,6.85
2023-01-23T02:07:15.736Z,6.82
2023-01-23T02:09:44.142Z,7.13
2023-01-23T02:12:12.855Z,6.18
2023-01-23T02:14:42.027Z,6.93
2023-01-23T02:17:10.678Z,8.25
2023-01-23T02:20:20.654Z,7.00
2023-01-23T02:23:16.444Z,6.40
2023-01-23T02:25:44.312Z,6.85
2023-01-23T02:28:16.657Z,7.82
2023-01-23T02:33:24.980Z,5.40
2023-01-23T02:35:55.037Z,7.95
2023-01-23T02:38:31.299Z,6.32
2023-01-23T02:41:02.688Z,5.05
2023-01-23T02:46:11.969Z,6.93
2023-01-23T02:48:40.406Z,5.35
2023-01-23T02:51:08.417Z,7.03
2023-01-23T02:53:36.422Z,7.07
2023-01-23T02:56:04.576Z,7.22
2023-01-23T02:58:50.896Z,6.22
2023-01-23T03:01:18.908Z,6.45
2023-01-23T03:03:46.867Z,7.10
2023-01-23T03:06:14.928Z,6.97
2023-01-23T03:08:47.666Z,7.78
2023-01-23T03:11:18.479Z,8.27
2023-01-23T03:13:48.028Z,6.57
2023-01-23T03:16:16.494Z,7.68
2023-01-23T03:18:53.821Z,6.43
2023-01-23T03:21:22.518Z,6.75
2023-01-23T03:23:50.517Z,6.75
2023-01-23T03:26:19.303Z,7.07
2023-01-23T03:29:07.653Z,7.10
2023-01-23T03:31:36.335Z,5.70
2023-01-23T03:34:04.384Z,7.45
2023-01-23T03:36:37.297Z,6.97
2023-01-23T03:39:39.550Z,7.70
2023-01-23T03:42:08.456Z,5.72
2023-01-23T03:44:37.071Z,6.38
2023-01-23T03:47:04.953Z,6.18
2023-01-23T03:49:33.268Z,5.85
2023-01-23T03:52:01.302Z,6.32
2023-01-23T03:54:30.456Z,5.97
2023-01-23T03:56:58.596Z,6.80
2023-01-23T03:59:55.505Z,7.22
2023-01-23T04:02:29.177Z,5.28
2023-01-23T04:04:57.199Z,6.35
2023-01-23T04:07:25.107Z,7.28
2023-01-23T04:09:53.025Z,7.13
2023-01-23T04:12:20.823Z,6.68
2023-01-23T04:14:50.062Z,6.88
2023-01-23T04:17:17.952Z,6.30
2023-01-23T04:19:46.069Z,5.45
2023-01-23T04:22:14.320Z,7.07
2023-01-23T04:24:47.602Z,6.97
2023-01-23T04:27:15.585Z,7.82
2023-01-23T04:29:43.468Z,5.85
2023-01-23T04:32:11.401Z,6.07
2023-01-23T04:34:45.320Z,5.75
2023-01-23T04:37:13.372Z,5.88
2023-01-23T04:39:42.184Z,5.90
2023-01-23T04:42:10.462Z,6.05
2023-01-23T04:44:49.484Z,5.32
2023-01-23T04:47:36.553Z,7.55
2023-01-23T04:50:09.589Z,6.55
2023-01-23T04:52:37.737Z,5.43
2023-01-23T04:55:06.296Z,6.68
2023-01-23T04:57:34.286Z,7.43
2023-01-23T05:00:13.799Z,5.72
2023-01-23T05:02:41.831Z,6.55
2023-01-23T05:05:10.251Z,7.68
2023-01-23T05:07:39.006Z,5.95
2023-01-23T05:10:10.682Z,7.45
2023-01-23T05:12:38.755Z,7.63
2023-01-23T05:15:09.091Z,8.65
2023-01-23T05:17:39.738Z,7.25
2023-01-23T05:20:08.681Z,7.97
2023-01-23T05:22:39.513Z,6.78
2023-01-23T05:25:08.241Z,6.03
2023-01-23T05:27:39.967Z,7.53
2023-01-23T05:30:09.226Z,7.45
2023-01-23T05:32:37.112Z,5.85
2023-01-23T05:35:17.781Z,8.00
2023-01-23T05:37:52.746Z,7.15
2023-01-23T05:40:24.327Z,9.38
2023-01-23T05:43:24.416Z,6.38
2023-01-23T05:46:21.378Z,9.13
2023-01-23T05:48:53.217Z,8.00
2023-01-23T05:51:23.275Z,8.40
2023-01-23T05:53:52.276Z,8.40
2023-01-23T05:56:20.185Z,8.52
2023-01-23T05:59:20.134Z,8.60
2023-01-23T06:02:15.349Z,6.93
2023-01-23T06:05:13.079Z,6.88
2023-01-23T06:07:59.941Z,7.45
2023-01-23T06:10:27.844Z,8.57
2023-01-23T06:12:55.786Z,7.57
2023-01-23T06:15:23.679Z,9.20
2023-01-23T06:17:54.764Z,7.70
2023-01-23T06:20:23.410Z,7.90
2023-01-23T06:22:51.721Z,8.07
2023-01-23T06:25:21.877Z,8.07
2023-01-23T06:27:50.347Z,7.35
2023-01-23T06:30:18.852Z,8.20
2023-01-23T06:32:48.137Z,7.88
2023-01-23T06:35:21.360Z,8.20
2023-01-23T06:37:53.768Z,6.65
2023-01-23T06:43:06.441Z,7.20
2023-01-23T06:45:34.599Z,7.22
2023-01-23T06:48:02.547Z,6.90
2023-01-23T06:50:32.397Z,8.57
2023-01-23T06:53:00.639Z,8.18
2023-01-23T06:55:28.949Z,7.95
2023-01-23T06:57:58.110Z,7.53
2023-01-23T07:00:27.140Z,7.45
2023-01-23T07:02:58.975Z,8.13
2023-01-23T07:05:27.241Z,9.57
2023-01-23T07:07:55.466Z,6.10
2023-01-23T07:10:23.584Z,9.85
2023-01-23T07:12:52.442Z,8.32
2023-01-23T07:15:20.527Z,6.82
2023-01-23T07:17:49.466Z,6.80
2023-01-23T07:20:17.534Z,7.45
2023-01-23T07:22:50.985Z,7.53
2023-01-23T07:25:18.885Z,7.85
2023-01-23T07:27:46.792Z,8.00
2023-01-23T07:30:20.387Z,7.13
2023-01-23T07:32:48.341Z,8.07
2023-01-23T07:35:16.298Z,6.25
2023-01-23T07:37:44.204Z,8.00
2023-01-23T07:40:12.890Z,7.50
2023-01-23T07:42:41.934Z,7.47
2023-01-23T07:45:10.775Z,6.18
2023-01-23T07:47:41.351Z,7.05
2023-01-23T07:50:15.034Z,9.43
2023-01-23T07:52:43.049Z,8.15
2023-01-23T07:55:11.067Z,8.45
2023-01-23T07:57:38.977Z,8.30
2023-01-23T08:00:07.721Z,9.02
2023-01-23T08:02:40.391Z,7.63
2023-01-23T08:05:08.711Z,9.60
2023-01-23T08:07:36.563Z,8.35
2023-01-23T08:10:04.802Z,7.78
2023-01-23T08:12:32.734Z,7.20
2023-01-23T08:15:00.594Z,7.75
2023-01-23T08:17:28.536Z,6.65
2023-01-23T08:19:56.509Z,6.32
2023-01-23T08:22:24.390Z,6.85
2023-01-23T08:24:52.199Z,5.95
2023-01-23T08:27:20.108Z,6.35
2023-01-23T08:29:48.007Z,7.70
2023-01-23T08:32:15.893Z,7.13
2023-01-23T08:34:43.746Z,7.43
2023-01-23T08:37:11.601Z,7.10
2023-01-23T08:39:39.411Z,7.45
2023-01-23T08:42:07.311Z,8.30
2023-01-23T08:44:35.155Z,8.35
2023-01-23T08:47:03.744Z,7.05
2023-01-23T08:49:34.185Z,7.82
2023-01-23T08:52:02.056Z,7.77
2023-01-23T08:54:29.989Z,8.07
2023-01-23T08:56:57.798Z,8.68
2023-01-23T08:59:25.833Z,8.85
2023-01-23T09:01:53.806Z,8.35
2023-01-23T09:04:21.698Z,7.38
2023-01-23T09:06:49.540Z,7.00
2023-01-23T09:09:18.184Z,6.93
2023-01-23T09:11:46.722Z,7.05
2023-01-23T09:14:14.657Z,5.50
2023-01-23T09:16:42.880Z,7.32
2023-01-23T09:19:16.702Z,6.55
2023-01-23T09:21:44.539Z,7.05
2023-01-23T09:24:12.381Z,6.57
2023-01-23T09:26:40.308Z,7.00
2023-01-23T09:29:08.166Z,7.72
2023-01-23T09:31:36.696Z,7.38
2023-01-23T09:34:04.716Z,8.60
2023-01-23T09:36:42.519Z,8.07
2023-01-23T09:39:11.618Z,7.85
2023-01-23T09:41:41.140Z,6.75
2023-01-23T09:44:20.536Z,8.27
2023-01-23T09:47:04.797Z,10.15
2023-01-23T09:50:15.465Z,6.70
2023-01-23T09:53:00.315Z,7.50
2023-01-23T09:56:07.151Z,6.78
2023-01-23T09:58:36.961Z,6.50
2023-01-23T10:01:05.723Z,7.50
2023-01-23T10:03:33.615Z,6.88
2023-01-23T10:06:23.322Z,7.18
2023-01-23T10:09:43.611Z,6.93
2023-01-23T10:12:25.884Z,7.10
2023-01-23T10:15:27.325Z,7.95
2023-01-23T10:18:10.001Z,9.00
2023-01-23T10:21:11.907Z,7.68
2023-01-23T10:26:26.483Z,7.40
2023-01-23T10:29:29.008Z,8.45
2023-01-23T10:32:01.344Z,8.38
2023-01-23T10:34:46.074Z,8.93
2023-01-23T10:37:39.931Z,8.52
2023-01-23T10:40:37.837Z,8.93
2023-01-23T10:43:20.626Z,7.85
2023-01-23T10:45:50.156Z,8.35
2023-01-23T10:48:40.603Z,9.48
2023-01-23T10:51:28.505Z,8.85
2023-01-23T10:54:36.633Z,9.35
2023-01-23T10:57:25.750Z,7.88
2023-01-23T11:00:08.235Z,8.73
2023-01-23T11:02:39.037Z,8.45
2023-01-23T11:05:50.589Z,7.43
2023-01-23T11:08:25.439Z,8.60
2023-01-23T11:10:54.231Z,8.73
2023-01-23T11:13:30.379Z,6.57
2023-01-23T11:15:58.529Z,9.50
2023-01-23T11:18:39.095Z,7.85
2023-01-23T11:21:07.109Z,6.82
2023-01-23T11:23:37.976Z,7.70
2023-01-23T11:26:06.548Z,7.70
2023-01-23T11:28:47.837Z,7.47
2023-01-23T11:31:28.233Z,7.45
2023-01-23T11:34:09.615Z,8.30
2023-01-23T11:37:11.196Z,9.65
2023-01-23T11:39:50.988Z,8.57
2023-01-23T11:42:22.125Z,9.63
2023-01-23T11:44:51.166Z,7.65
2023-01-23T11:47:40.497Z,7.30
2023-01-23T11:50:22.293Z,8.10
2023-01-23T11:53:22.478Z,9.45
2023-01-23T11:56:21.530Z,9.43
2023-01-23T11:58:59.903Z,9.60
2023-01-23T12:02:16.592Z,8.00
2023-01-23T12:04:56.658Z,8.00
2023-01-23T12:07:25.346Z,8.23
2023-01-23T12:10:23.885Z,9.13
2023-01-23T12:13:21.182Z,9.02
2023-01-23T12:16:26.132Z,9.05
2023-01-23T12:19:10.799Z,8.90
2023-01-23T12:22:16.103Z,9.68
2023-01-23T12:25:23.494Z,10.52
2023-01-23T12:28:02.859Z,9.77
2023-01-23T12:31:06.911Z,8.95
2023-01-23T12:33:38.372Z,9.30
2023-01-23T12:38:53.054Z,8.10
2023-01-23T12:41:30.966Z,8.18
2023-01-23T12:44:18.561Z,9.18
2023-01-23T12:47:26.056Z,8.57
2023-01-23T12:49:56.237Z,8.30
2023-01-23T12:53:00.597Z,9.55
2023-01-23T12:55:39.603Z,8.10
2023-01-23T12:58:13.061Z,7.80
2023-01-23T13:01:09.312Z,7.63
2023-01-23T13:04:40.380Z,7.53
2023-01-23T13:07:31.454Z,8.07
2023-01-23T13:10:26.303Z,8.77
2023-01-23T13:13:00.274Z,7.88
2023-01-23T13:15:40.442Z,8.48
2023-01-23T13:18:23.544Z,8.70
2023-01-23T13:21:18.293Z,9.05
2023-01-23T13:23:46.368Z,9.32
2023-01-23T13:26:17.080Z,10.15
2023-01-23T13:28:49.172Z,8.70
2023-01-23T13:31:46.484Z,8.05
2023-01-23T13:34:17.741Z,8.38
2023-01-23T13:36:47.766Z,8.45
2023-01-23T13:39:19.766Z,9.07
2023-01-23T13:41:53.031Z,8.85
2023-01-23T13:44:41.612Z,9.07
2023-01-23T14:21:52.200Z,10.07
2023-01-23T14:24:25.208Z,10.23
2023-01-23T14:27:02.465Z,10.82
2023-01-23T14:29:32.761Z,9.52
2023-01-23T14:32:00.711Z,9.48
2023-01-23T14:34:28.825Z,8.55
2023-01-23T14:37:08.765Z,8.77
2023-01-23T14:39:37.150Z,8.55
2023-01-23T14:42:09.560Z,9.75
2023-01-23T14:44:40.517Z,10.20
2023-01-23T14:47:26.231Z,8.38
2023-01-23T14:49:55.338Z,8.95
2023-01-23T14:52:29.456Z,9.73
2023-01-23T14:55:07.327Z,8.55
2023-01-23T14:58:00.768Z,8.63
2023-01-23T15:00:29.307Z,9.13
2023-01-23T15:02:57.340Z,9.43
2023-01-23T15:05:29.116Z,9.40
2023-01-23T15:08:07.240Z,8.60
2023-01-23T15:10:45.109Z,8.82
2023-01-23T15:13:50.324Z,9.60
2023-01-23T15:16:31.561Z,9.20
2023-01-23T15:19:07.474Z,9.38
2023-01-23T15:21:40.816Z,8.88
2023-01-23T15:24:14.958Z,9.15
2023-01-23T15:26:50.374Z,8.95
2023-01-23T15:29:20.860Z,8.50
2023-01-23T15:31:51.259Z,9.70
2023-01-23T15:34:24.694Z,9.90
2023-01-23T15:37:12.491Z,8.77
2023-01-23T15:39:54.493Z,8.35
2023-01-23T15:42:28.815Z,9.48
2023-01-23T15:45:00.922Z,8.80
2023-01-23T15:47:30.867Z,8.40
2023-01-23T15:50:03.157Z,8.30
2023-01-23T15:52:47.122Z,9.02
2023-01-23T15:55:16.080Z,8.25
2023-01-23T15:57:44.068Z,9.13
2023-01-23T16:00:25.768Z,8.43
2023-01-23T16:02:57.249Z,10.65
2023-01-23T16:05:29.067Z,10.30
2023-01-23T16:08:00.985Z,8.70
2023-01-23T16:10:34.428Z,8.88
2023-01-23T16:13:02.657Z,9.85
2023-01-23T16:15:33.094Z,8.80
2023-01-23T16:18:03.150Z,9.38
2023-01-23T16:20:35.793Z,8.15
2023-01-23T16:23:15.759Z,9.57
2023-01-23T16:25:45.913Z,8.05
2023-01-23T16:28:17.796Z,9.90
2023-01-23T16:30:47.780Z,10.40
2023-01-23T16:33:16.470Z,8.27
2023-01-23T16:35:44.952Z,9.07
2023-01-23T16:38:26.413Z,9.45
2023-01-23T16:40:56.655Z,10.20
2023-01-23T16:43:25.109Z,10.07
2023-01-23T16:45:56.128Z,7.90
2023-01-23T16:51:17.889Z,9.07
2023-01-23T16:53:55.131Z,8.88
2023-01-23T16:56:38.999Z,8.48
2023-01-23T16:59:14.121Z,8.02
2023-01-23T17:01:46.001Z,7.95
2023-01-23T17:04:18.084Z,9.60
2023-01-23T17:06:46.073Z,9.90
2023-01-23T17:09:15.898Z,10.57
2023-01-23T17:11:48.881Z,9.93
2023-01-23T17:14:24.843Z,9.85
2023-01-23T17:16:53.131Z,10.25
2023-01-23T17:19:32.748Z,9.98
2023-01-23T17:22:03.242Z,8.70
2023-01-23T17:24:31.257Z,9.20
2023-01-23T17:26:59.081Z,10.55
2023-01-23T17:29:27.355Z,9.15
2023-01-23T17:31:55.386Z,10.00
2023-01-23T17:34:25.871Z,10.48
2023-01-23T17:36:54.999Z,9.70
2023-01-23T17:39:22.870Z,8.05
2023-01-23T17:41:51.295Z,7.95
2023-01-23T17:44:19.281Z,8.88
2023-01-23T17:46:47.762Z,8.15
2023-01-23T17:49:30.272Z,8.25
2023-01-23T17:52:01.031Z,8.52
2023-01-23T17:54:29.589Z,12.43
2023-01-23T17:56:57.458Z,9.50
2023-01-23T17:59:25.383Z,7.82
2023-01-23T18:01:53.395Z,8.95
2023-01-23T18:04:22.548Z,9.05
2023-01-23T18:06:50.916Z,9.48
2023-01-23T18:09:20.994Z,9.80
2023-01-23T18:11:52.373Z,9.45
2023-01-23T18:14:41.579Z,9.35
2023-01-23T18:17:31.803Z,8.50
2023-01-23T18:20:00.230Z,11.43
2023-01-23T18:22:28.370Z,8.85
2023-01-23T18:24:56.462Z,9.45
2023-01-23T18:27:25.760Z,8.88
2023-01-23T18:30:21.602Z,11.15
2023-01-23T18:33:05.483Z,9.00
2023-01-23T18:36:01.246Z,9.23
2023-01-23T18:39:04.273Z,10.40
2023-01-23T18:41:32.345Z,8.48
2023-01-23T18:44:10.022Z,8.13
2023-01-23T18:46:38.161Z,8.90
2023-01-23T18:49:06.230Z,7.15
2023-01-23T18:52:11.176Z,8.73
2023-01-23T18:55:11.086Z,9.57
2023-01-23T18:58:01.258Z,8.05
2023-01-23T19:00:47.693Z,8.82
2023-01-23T19:03:17.852Z,10.38
2023-01-23T19:05:46.444Z,8.30
2023-01-23T19:08:28.231Z,8.10
2023-01-23T19:11:06.412Z,10.52
2023-01-23T19:13:58.402Z,9.07
2023-01-23T19:16:32.722Z,8.52
2023-01-23T19:19:20.999Z,9.32
2023-01-23T19:21:48.969Z,7.65
2023-01-23T19:24:19.547Z,8.90
2023-01-23T19:26:48.145Z,9.35
2023-01-23T19:29:21.960Z,8.48
2023-01-23T19:32:06.923Z,9.82
2023-01-23T19:34:35.349Z,9.05
2023-01-23T19:37:04.039Z,9.38
2023-01-23T19:39:32.174Z,8.00
2023-01-23T19:42:00.414Z,9.02
2023-01-23T19:44:29.895Z,10.02
2023-01-23T19:46:57.843Z,10.02
2023-01-23T19:49:25.843Z,10.00
2023-01-23T19:51:53.751Z,9.85
2023-01-23T19:54:24.032Z,9.55
2023-01-23T19:56:52.335Z,8.27
2023-01-23T19:59:20.789Z,9.50
2023-01-23T20:01:52.036Z,8.50
2023-01-23T20:06:51.715Z,8.68
2023-01-23T20:09:20.147Z,8.07
2023-01-23T20:11:48.252Z,8.40
2023-01-23T20:14:16.166Z,9.73
2023-01-23T20:16:44.543Z,7.45
2023-01-23T20:19:15.123Z,9.73
2023-01-23T20:21:43.542Z,9.20
2023-01-23T20:24:11.813Z,9.02
2023-01-23T20:26:40.153Z,8.85
2023-01-23T20:29:08.533Z,11.43
2023-01-23T20:31:36.591Z,10.32
2023-01-23T20:34:04.663Z,12.02
2023-01-23T20:36:32.584Z,11.18
2023-01-23T20:39:00.456Z,10.77
2023-01-23T20:41:28.367Z,8.65
2023-01-23T20:43:56.302Z,8.52
2023-01-23T20:46:24.128Z,10.15
2023-01-23T20:48:53.085Z,10.95
2023-01-23T20:51:20.913Z,7.72
2023-01-23T20:53:50.098Z,10.70
2023-01-23T20:56:27.201Z,10.48
2023-01-23T20:59:15.157Z,10.60
2023-01-23T21:02:03.299Z,10.02
2023-01-23T21:04:34.367Z,11.23
2023-01-23T21:07:03.661Z,10.30
2023-01-23T21:09:31.732Z,8.90
2023-01-23T21:12:00.041Z,9.35
2023-01-23T21:14:28.114Z,10.02
2023-01-23T21:16:56.005Z,9.50
2023-01-23T21:19:23.904Z,10.02
2023-01-23T21:21:51.783Z,8.82
2023-01-23T21:24:19.939Z,8.82
2023-01-23T21:26:47.855Z,8.57
2023-01-23T21:29:15.809Z,10.63
2023-01-23T21:31:44.104Z,8.70
2023-01-23T21:34:14.223Z,8.95
2023-01-23T21:36:42.864Z,9.25
2023-01-23T21:39:14.302Z,10.52
2023-01-23T21:41:42.635Z,9.70
2023-01-23T21:44:11.548Z,6.85
2023-01-23T21:46:39.636Z,9.35
2023-01-23T21:49:07.551Z,8.90
2023-01-23T21:51:35.398Z,8.48
2023-01-23T21:54:03.381Z,9.73
2023-01-23T21:56:31.255Z,8.70
2023-01-23T21:58:59.090Z,8.90
2023-01-23T22:01:33.443Z,7.85
2023-01-23T22:04:14.231Z,9.80
2023-01-23T22:06:44.391Z,8.95
2023-01-23T22:09:18.410Z,12.00
2023-01-23T22:11:47.862Z,10.18
2023-01-23T22:14:17.909Z,8.55
2023-01-23T22:16:49.090Z,9.98
2023-01-23T22:19:24.252Z,9.75
2023-01-23T22:21:57.081Z,9.38
2023-01-23T22:24:25.137Z,12.68
2023-01-23T22:26:53.085Z,10.25
2023-01-23T22:29:22.642Z,10.38
2023-01-23T22:31:51.268Z,11.30
2023-01-23T22:34:19.223Z,10.30
2023-01-23T22:36:47.239Z,10.43
2023-01-23T22:39:19.627Z,10.55
2023-01-23T22:41:49.989Z,9.50
2023-01-23T22:44:18.633Z,13.00
2023-01-23T22:46:46.547Z,10.27
2023-01-23T22:49:14.387Z,11.50
2023-01-23T22:51:42.353Z,10.48
2023-01-23T22:54:10.192Z,12.10
2023-01-23T22:56:38.603Z,8.80
2023-01-23T22:59:06.473Z,9.38
2023-01-23T23:01:34.469Z,10.57
2023-01-23T23:04:02.602Z,9.48
2023-01-23T23:06:31.955Z,11.15
2023-01-23T23:08:59.865Z,10.25
2023-01-23T23:11:28.696Z,11.15
2023-01-23T23:13:57.157Z,9.85
2023-01-23T23:16:30.735Z,9.05
2023-01-23T23:19:01.408Z,11.50
2023-01-23T23:21:33.665Z,10.85
2023-01-23T23:24:02.164Z,11.35
2023-01-23T23:26:31.732Z,9.18
2023-01-23T23:29:00.704Z,8.98
2023-01-23T23:31:29.220Z,8.70
2023-01-23T23:33:57.664Z,9.38
2023-01-23T23:36:25.726Z,9.65
2023-01-23T23:38:53.836Z,9.38
2023-01-23T23:41:21.838Z,8.77
2023-01-23T23:43:49.685Z,9.27
2023-01-23T23:46:17.993Z,9.70
2023-01-23T23:48:47.888Z,9.77
2023-01-23T23:51:18.685Z,9.07
2023-01-23T23:53:47.276Z,10.45
2023-01-23T23:56:27.663Z,7.07
2023-01-23T23:58:56.197Z,7.78
